createdAt,value
2022-09-03T00:01:19.543Z,101200.06
2022-09-03T00:03:55.733Z,101194.03
2022-09-03T00:06:34.648Z,101200.41
2022-09-03T00:09:13.086Z,101197.50
2022-09-03T00:11:54.329Z,101195.97
2022-09-03T00:14:28.405Z,101197.00
2022-09-03T00:17:04.389Z,101197.13
2022-09-03T00:19:40.153Z,101198.31
2022-09-03T00:22:19.567Z,101196.50
2022-09-03T00:24:52.354Z,101203.19
2022-09-03T00:27:26.612Z,101193.13
2022-09-03T00:30:01.034Z,101194.59
2022-09-03T00:32:39.889Z,101193.56
2022-09-03T00:35:17.008Z,101200.56
2022-09-03T00:37:49.774Z,101200.97
2022-09-03T00:40:34.606Z,101201.28
2022-09-03T00:43:14.459Z,101198.34
2022-09-03T00:45:49.480Z,101192.19
2022-09-03T00:48:28.360Z,101192.19
2022-09-03T00:51:12.773Z,101189.34
2022-09-03T00:53:54.066Z,101186.41
2022-09-03T00:56:31.319Z,101189.28
2022-09-03T00:59:11.346Z,101184.13
2022-09-03T01:01:51.246Z,101181.19
2022-09-03T01:04:38.044Z,101183.81
2022-09-03T01:07:15.842Z,101182.38
2022-09-03T01:09:56.547Z,101174.72
2022-09-03T01:12:38.006Z,101176.50
2022-09-03T01:15:15.847Z,101178.34
2022-09-03T01:17:56.907Z,101172.94
2022-09-03T01:20:38.475Z,101172.44
2022-09-03T01:23:31.070Z,101171.16
2022-09-03T01:26:18.711Z,101176.22
2022-09-03T01:29:03.119Z,101169.81
2022-09-03T01:31:46.640Z,101175.69
2022-09-03T01:34:25.734Z,101176.69
2022-09-03T01:37:09.222Z,101172.75
2022-09-03T01:39:56.049Z,101172.94
2022-09-03T01:42:35.041Z,101167.81
2022-09-03T01:45:32.691Z,101171.66
2022-09-03T01:48:18.163Z,101167.34
2022-09-03T01:50:57.824Z,101166.88
2022-09-03T01:53:44.232Z,101172.22
2022-09-03T01:56:29.371Z,101173.88
2022-09-03T01:59:07.106Z,101173.06
2022-09-03T02:01:45.327Z,101177.56
2022-09-03T02:04:23.266Z,101175.25
2022-09-03T02:06:54.243Z,101183.91
2022-09-03T02:09:24.417Z,101173.81
2022-09-03T02:12:04.884Z,101172.97
2022-09-03T02:14:35.476Z,101172.25
2022-09-03T02:17:09.794Z,101173.25
2022-09-03T02:19:44.154Z,101171.91
2022-09-03T02:22:15.844Z,101162.06
2022-09-03T02:24:46.132Z,101177.97
2022-09-03T02:27:16.332Z,101183.25
2022-09-03T02:29:47.019Z,101178.25
2022-09-03T02:32:19.860Z,101179.91
2022-09-03T02:34:49.737Z,101175.16
2022-09-03T02:37:22.299Z,101176.81
2022-09-03T02:39:52.905Z,101178.63
2022-09-03T02:42:23.317Z,101178.09
2022-09-03T02:44:58.140Z,101175.97
2022-09-03T02:47:35.684Z,101171.00
2022-09-03T02:50:05.645Z,101173.41
2022-09-03T02:52:35.857Z,101175.59
2022-09-03T02:55:05.803Z,101173.94
2022-09-03T02:57:35.941Z,101173.28
2022-09-03T03:00:08.125Z,101172.22
2022-09-03T03:02:41.983Z,101178.72
2022-09-03T03:05:17.645Z,101170.34
2022-09-03T03:07:47.857Z,101169.22
2022-09-03T03:10:17.740Z,101169.41
2022-09-03T03:12:47.720Z,101172.22
2022-09-03T03:15:18.021Z,101166.09
2022-09-03T03:17:50.526Z,101173.41
2022-09-03T03:20:20.672Z,101181.09
2022-09-03T03:22:50.912Z,101184.59
2022-09-03T03:25:21.027Z,101175.47
2022-09-03T03:27:50.889Z,101183.19
2022-09-03T03:30:21.463Z,101182.00
2022-09-03T03:32:56.369Z,101178.13
2022-09-03T03:35:26.719Z,101183.31
2022-09-03T03:37:57.219Z,101178.69
2022-09-03T03:40:27.587Z,101177.84
2022-09-03T03:43:00.728Z,101190.94
2022-09-03T03:45:30.822Z,101184.44
2022-09-03T03:48:03.767Z,101187.31
2022-09-03T03:50:33.910Z,101197.75
2022-09-03T03:53:04.446Z,101205.09
2022-09-03T03:55:35.145Z,101198.78
2022-09-03T03:58:05.770Z,101187.16
2022-09-03T04:00:37.870Z,101189.72
2022-09-03T04:03:10.840Z,101195.22
2022-09-03T04:05:46.233Z,101189.38
2022-09-03T04:08:19.494Z,101185.06
2022-09-03T04:10:49.685Z,101186.66
2022-09-03T04:13:20.430Z,101183.28
2022-09-03T04:15:50.464Z,101183.28
2022-09-03T04:18:23.739Z,101181.94
2022-09-03T04:20:55.418Z,101184.88
2022-09-03T04:23:25.569Z,101185.84
2022-09-03T04:25:55.917Z,101180.00
2022-09-03T04:28:26.502Z,101185.97
2022-09-03T04:30:56.986Z,101180.28
2022-09-03T04:33:30.829Z,101176.91
2022-09-03T04:36:08.250Z,101181.91
2022-09-03T04:38:40.496Z,101177.88
2022-09-03T04:41:12.674Z,101183.38
2022-09-03T04:43:43.742Z,101183.38
2022-09-03T04:46:18.435Z,101174.38
2022-09-03T04:48:54.428Z,101180.91
2022-09-03T04:51:30.056Z,101180.69
2022-09-03T04:54:02.252Z,101182.78
2022-09-03T04:56:35.350Z,101178.09
2022-09-03T04:59:07.367Z,101185.09
2022-09-03T05:01:39.160Z,101187.63
2022-09-03T05:04:12.148Z,101193.72
2022-09-03T05:06:43.449Z,101184.25
2022-09-03T05:09:13.938Z,101192.06
2022-09-03T05:11:44.311Z,101194.22
2022-09-03T05:14:14.448Z,101187.09
2022-09-03T05:16:44.325Z,101193.59
2022-09-03T05:19:26.006Z,101188.09
2022-09-03T05:21:55.881Z,101190.06
2022-09-03T05:24:26.052Z,101193.38
2022-09-03T05:26:55.925Z,101195.38
2022-09-03T05:29:26.111Z,101195.72
2022-09-03T05:31:56.345Z,101194.38
2022-09-03T05:34:28.814Z,101197.53
2022-09-03T05:36:58.881Z,101202.84
2022-09-03T05:39:28.837Z,101206.50
2022-09-03T05:41:58.631Z,101201.53
2022-09-03T05:44:28.847Z,101198.09
2022-09-03T05:46:59.099Z,101196.25
2022-09-03T05:49:32.083Z,101196.53
2022-09-03T05:52:03.159Z,101202.28
2022-09-03T05:54:33.331Z,101201.13
2022-09-03T05:57:03.249Z,101198.81
2022-09-03T05:59:33.089Z,101202.63
2022-09-03T06:02:03.405Z,101203.50
2022-09-03T06:04:35.899Z,101201.63
2022-09-03T06:07:06.186Z,101201.00
2022-09-03T06:09:36.036Z,101209.34
2022-09-03T06:12:06.169Z,101205.19
2022-09-03T06:14:36.318Z,101203.66
2022-09-03T06:17:06.223Z,101200.00
2022-09-03T06:19:38.687Z,101205.97
2022-09-03T06:22:09.117Z,101206.25
2022-09-03T06:24:39.325Z,101215.09
2022-09-03T06:27:09.461Z,101214.06
2022-09-03T06:29:39.949Z,101214.19
2022-09-03T06:32:10.116Z,101208.03
2022-09-03T06:34:45.671Z,101210.34
2022-09-03T06:37:16.074Z,101209.16
2022-09-03T06:39:46.586Z,101209.47
2022-09-03T06:42:17.524Z,101217.09
2022-09-03T06:44:49.003Z,101212.59
2022-09-03T06:47:19.685Z,101210.59
2022-09-03T06:49:52.444Z,101215.91
2022-09-03T06:52:23.051Z,101216.56
2022-09-03T06:54:53.237Z,101223.81
2022-09-03T06:57:23.758Z,101212.16
2022-09-03T06:59:54.715Z,101220.91
2022-09-03T07:02:25.077Z,101216.88
2022-09-03T07:04:58.835Z,101224.44
2022-09-03T07:07:29.006Z,101217.88
2022-09-03T07:09:59.665Z,101214.69
2022-09-03T07:12:29.879Z,101211.97
2022-09-03T07:14:59.934Z,101213.53
2022-09-03T07:17:30.532Z,101211.16
2022-09-03T07:20:03.083Z,101208.41
2022-09-03T07:22:33.657Z,101208.69
2022-09-03T07:25:03.682Z,101213.84
2022-09-03T07:27:33.714Z,101220.53
2022-09-03T07:30:04.019Z,101215.16
2022-09-03T07:32:33.797Z,101218.34
2022-09-03T07:35:08.279Z,101215.78
2022-09-03T07:37:38.763Z,101221.84
2022-09-03T07:40:10.600Z,101224.97
2022-09-03T07:42:41.579Z,101227.72
2022-09-03T07:45:13.519Z,101218.59
2022-09-03T07:47:50.269Z,101228.09
2022-09-03T07:50:23.753Z,101228.72
2022-09-03T07:53:00.019Z,101224.09
2022-09-03T07:55:33.593Z,101221.34
2022-09-03T07:58:06.023Z,101223.72
2022-09-03T08:00:38.234Z,101224.81
2022-09-03T08:03:09.215Z,101223.03
2022-09-03T08:05:42.033Z,101227.81
2022-09-03T08:08:15.542Z,101224.38
2022-09-03T08:10:46.761Z,101225.09
2022-09-03T08:13:17.042Z,101225.22
2022-09-03T08:15:59.789Z,101224.25
2022-09-03T08:18:37.949Z,101220.88
2022-09-03T08:21:16.966Z,101222.63
2022-09-03T08:23:48.937Z,101219.06
2022-09-03T08:26:20.715Z,101218.69
2022-09-03T08:28:51.211Z,101214.59
2022-09-03T08:31:23.628Z,101220.59
2022-09-03T08:33:54.845Z,101214.06
2022-09-03T08:36:30.087Z,101213.69
2022-09-03T08:39:04.284Z,101213.75
2022-09-03T08:41:42.553Z,101205.16
2022-09-03T08:44:22.615Z,101202.25
2022-09-03T08:46:57.811Z,101199.22
2022-09-03T08:49:32.302Z,101199.88
2022-09-03T08:52:09.231Z,101194.78
2022-09-03T08:54:40.428Z,101196.63
2022-09-03T08:57:12.285Z,101203.09
2022-09-03T08:59:42.462Z,101195.28
2022-09-03T09:02:25.531Z,101195.94
2022-09-03T09:05:03.022Z,101197.81
2022-09-03T09:07:46.613Z,101195.75
2022-09-03T09:10:24.493Z,101192.88
2022-09-03T09:13:07.980Z,101191.66
2022-09-03T09:15:51.619Z,101189.19
2022-09-03T09:18:29.045Z,101185.22
2022-09-03T09:21:07.118Z,101178.41
2022-09-03T09:23:50.611Z,101180.81
2022-09-03T09:26:31.576Z,101178.47
2022-09-03T09:29:14.796Z,101178.84
2022-09-03T09:31:57.815Z,101174.19
2022-09-03T09:35:36.466Z,101167.47
2022-09-03T09:38:24.337Z,101166.91
2022-09-03T09:45:01.092Z,101161.38
2022-09-03T09:47:37.721Z,101163.09
2022-09-03T09:50:25.894Z,101155.88
2022-09-03T09:53:21.840Z,101155.41
2022-09-03T09:56:49.315Z,101158.97
2022-09-03T09:59:45.910Z,101155.28
2022-09-03T10:02:27.321Z,101148.00
2022-09-03T10:05:03.021Z,101146.56
2022-09-03T10:07:34.480Z,101141.06
2022-09-03T10:10:08.085Z,101136.59
2022-09-03T10:12:45.035Z,101144.84
2022-09-03T10:15:36.914Z,101141.44
2022-09-03T10:18:26.477Z,101142.84
2022-09-03T10:21:05.187Z,101142.00
2022-09-03T10:23:53.774Z,101139.69
2022-09-03T10:26:29.131Z,101135.47
2022-09-03T10:29:05.798Z,101126.91
2022-09-03T10:31:55.231Z,101129.59
2022-09-03T10:34:37.004Z,101128.41
2022-09-03T10:37:19.789Z,101132.41
2022-09-03T10:39:59.711Z,101127.16
2022-09-03T10:42:41.139Z,101128.19
2022-09-03T10:45:20.752Z,101126.56
2022-09-03T10:48:11.779Z,101123.38
2022-09-03T10:50:51.512Z,101125.84
2022-09-03T10:53:39.423Z,101124.78
2022-09-03T10:56:17.324Z,101107.09
2022-09-03T10:59:02.208Z,101109.31
2022-09-03T11:01:40.761Z,101106.94
2022-09-03T11:04:26.676Z,101097.97
2022-09-03T11:07:03.067Z,101098.28
2022-09-03T11:09:39.984Z,101097.72
2022-09-03T11:12:15.073Z,101094.53
2022-09-03T11:14:48.598Z,101089.03
2022-09-03T11:17:26.503Z,101095.97
2022-09-03T11:20:05.708Z,101087.69
2022-09-03T11:22:38.028Z,101090.72
2022-09-03T11:25:11.192Z,101082.16
2022-09-03T11:27:58.928Z,101084.25
2022-09-03T11:30:41.528Z,101075.22
2022-09-03T11:33:15.018Z,101081.22
2022-09-03T11:35:48.261Z,101078.50
2022-09-03T11:38:27.458Z,101081.13
2022-09-03T11:41:04.423Z,101084.16
2022-09-03T11:43:35.800Z,101077.97
2022-09-03T11:46:12.042Z,101076.41
2022-09-03T11:48:45.808Z,101074.72
2022-09-03T11:51:35.774Z,101086.22
2022-09-03T11:54:09.635Z,101074.97
2022-09-03T11:56:40.274Z,101083.72
2022-09-03T11:59:22.902Z,101070.97
2022-09-03T12:01:55.974Z,101067.78
2022-09-03T12:04:34.629Z,101063.88
2022-09-03T12:07:31.580Z,101071.09
2022-09-03T12:10:40.005Z,101056.75
2022-09-03T12:13:44.352Z,101057.16
2022-09-03T12:16:35.008Z,101058.69
2022-09-03T12:19:12.858Z,101060.25
2022-09-03T12:21:44.309Z,101047.06
2022-09-03T12:24:17.357Z,101057.56
2022-09-03T12:26:47.488Z,101045.69
2022-09-03T12:29:27.930Z,101046.97
2022-09-03T12:31:59.057Z,101042.19
2022-09-03T12:34:29.197Z,101037.84
2022-09-03T12:36:58.897Z,101046.13
2022-09-03T12:42:29.722Z,101043.22
2022-09-03T12:45:09.351Z,101039.25
2022-09-03T12:47:42.362Z,101028.66
2022-09-03T12:50:16.631Z,101022.66
2022-09-03T12:52:51.662Z,101018.91
2022-09-03T12:55:36.347Z,101013.38
2022-09-03T12:58:13.866Z,101011.09
2022-09-03T13:00:49.842Z,101011.56
2022-09-03T13:03:26.108Z,101013.94
2022-09-03T13:06:00.089Z,101018.84
2022-09-03T13:08:33.866Z,101020.31
2022-09-03T13:11:07.877Z,101011.13
2022-09-03T13:13:40.847Z,101014.50
2022-09-03T13:16:31.345Z,101020.16
2022-09-03T13:19:09.747Z,101012.16
2022-09-03T13:21:48.923Z,101014.97
2022-09-03T13:24:42.886Z,101015.28
2022-09-03T13:27:24.819Z,101020.13
2022-09-03T13:30:11.069Z,101014.47
2022-09-03T13:32:51.190Z,101015.53
2022-09-03T13:35:30.950Z,101005.72
2022-09-03T13:38:13.178Z,101011.84
2022-09-03T13:40:49.918Z,101008.41
2022-09-03T13:43:33.629Z,101013.59
2022-09-03T13:46:09.147Z,101011.91
2022-09-03T13:48:55.255Z,101012.03
2022-09-03T13:51:30.655Z,101000.31
2022-09-03T13:54:16.967Z,101000.72
2022-09-03T13:56:59.739Z,100993.59
2022-09-03T13:59:39.237Z,100986.81
2022-09-03T14:02:18.918Z,100992.66
2022-09-03T14:05:01.447Z,100989.72
2022-09-03T14:07:48.052Z,100980.97
2022-09-03T14:10:26.371Z,100988.44
2022-09-03T14:13:09.639Z,100984.38
2022-09-03T14:15:46.719Z,100983.72
2022-09-03T14:18:26.718Z,100980.19
2022-09-03T14:21:00.808Z,100975.88
2022-09-03T14:23:38.754Z,100974.50
2022-09-03T14:26:10.252Z,100976.88
2022-09-03T14:28:44.544Z,100977.78
2022-09-03T14:31:25.703Z,100971.91
2022-09-03T14:34:04.647Z,100977.59
2022-09-03T14:36:41.627Z,100978.50
2022-09-03T14:39:28.307Z,100976.47
2022-09-03T14:42:42.995Z,100965.88
2022-09-03T14:45:35.343Z,100960.75
2022-09-03T14:48:23.632Z,100957.03
2022-09-03T14:51:08.559Z,100954.38
2022-09-03T14:53:58.578Z,100962.47
2022-09-03T14:56:40.756Z,100961.16
2022-09-03T14:59:33.159Z,100962.69
2022-09-03T15:02:41.370Z,100950.53
2022-09-03T15:05:21.472Z,100949.47
2022-09-03T15:07:55.923Z,100951.63
2022-09-03T15:10:36.472Z,100959.88
2022-09-03T15:13:14.582Z,100940.03
2022-09-03T15:16:02.280Z,100938.72
2022-09-03T15:18:45.925Z,100947.03
2022-09-03T15:21:31.274Z,100945.03
2022-09-03T15:24:09.999Z,100943.94
2022-09-03T15:26:54.928Z,100949.44
2022-09-03T15:29:40.791Z,100950.06
2022-09-03T15:32:25.546Z,100955.28
2022-09-03T15:35:08.767Z,100954.41
2022-09-03T15:37:49.794Z,100961.66
2022-09-03T15:40:29.090Z,100966.72
2022-09-03T15:43:07.967Z,100965.81
2022-09-03T15:45:42.557Z,100958.34
2022-09-03T15:48:23.577Z,100961.50
2022-09-03T15:50:58.718Z,100960.31
2022-09-03T15:53:39.226Z,100958.13
2022-09-03T15:56:21.278Z,100967.91
2022-09-03T15:59:02.652Z,100963.31
2022-09-03T16:01:39.667Z,100967.94
2022-09-03T16:04:25.016Z,100959.75
2022-09-03T16:07:02.761Z,100974.81
2022-09-03T16:10:22.635Z,100965.75
2022-09-03T16:12:55.353Z,100963.22
2022-09-03T16:15:28.642Z,100955.81
2022-09-03T16:18:06.693Z,100960.84
2022-09-03T16:20:41.747Z,100961.22
2022-09-03T16:23:19.404Z,100964.34
2022-09-03T16:25:59.228Z,100969.34
2022-09-03T16:28:34.035Z,100962.06
2022-09-03T16:31:16.591Z,100964.25
2022-09-03T16:33:58.427Z,100972.47
2022-09-03T16:36:40.651Z,100974.38
2022-09-03T16:39:24.395Z,100970.88
2022-09-03T16:42:23.477Z,100971.13
2022-09-03T16:45:06.912Z,100971.59
2022-09-03T16:47:53.342Z,100975.09
2022-09-03T16:50:41.688Z,100973.16
2022-09-03T16:53:28.843Z,100973.34
2022-09-03T16:56:11.443Z,100973.59
2022-09-03T16:59:03.376Z,100969.78
2022-09-03T17:02:37.094Z,100969.78
2022-09-03T17:05:13.219Z,100967.50
2022-09-03T17:07:59.200Z,100972.06
2022-09-03T17:10:38.485Z,100969.00
2022-09-03T17:13:33.623Z,100975.53
2022-09-03T17:16:23.666Z,100974.88
2022-09-03T17:19:00.195Z,100970.41
2022-09-03T17:21:41.944Z,100972.44
2022-09-03T17:24:33.614Z,100968.91
2022-09-03T17:27:20.981Z,100969.66
2022-09-03T17:30:06.000Z,100969.03
2022-09-03T17:33:01.737Z,100984.06
2022-09-03T17:35:40.467Z,100980.34
2022-09-03T17:38:25.657Z,100975.34
2022-09-03T17:41:04.238Z,100969.25
2022-09-03T17:43:47.176Z,100975.34
2022-09-03T17:46:28.218Z,100977.50
2022-09-03T17:49:02.920Z,100982.53
2022-09-03T17:51:39.365Z,100992.09
2022-09-03T17:54:15.667Z,100987.91
2022-09-03T17:56:52.247Z,101001.78
2022-09-03T17:59:34.883Z,100997.44
2022-09-03T18:02:10.702Z,100990.31
2022-09-03T18:04:49.294Z,100997.53
2022-09-03T18:07:27.786Z,101009.00
2022-09-03T18:10:10.143Z,101016.28
2022-09-03T18:12:59.865Z,101018.41
2022-09-03T18:15:40.318Z,101013.91
2022-09-03T18:18:18.974Z,101016.84
2022-09-03T18:21:23.357Z,101021.09
2022-09-03T18:24:14.849Z,101020.47
2022-09-03T18:27:02.793Z,101020.59
2022-09-03T18:29:54.233Z,101022.72
2022-09-03T18:32:36.990Z,101020.03
2022-09-03T18:35:20.182Z,101028.28
2022-09-03T18:38:05.214Z,101025.72
2022-09-03T18:40:54.807Z,101030.19
2022-09-03T18:43:48.396Z,101032.47
2022-09-03T18:47:54.458Z,101035.06
2022-09-03T18:49:48.744Z,101029.94
2022-09-03T18:52:36.569Z,101034.09
2022-09-03T18:55:31.128Z,101034.81
2022-09-03T18:58:28.427Z,101034.00
2022-09-03T19:01:20.693Z,101028.84
2022-09-03T19:04:16.851Z,101034.63
2022-09-03T19:07:11.967Z,101036.06
2022-09-03T19:10:07.551Z,101032.38
2022-09-03T19:13:06.943Z,101036.84
2022-09-03T19:15:56.529Z,101038.63
2022-09-03T19:19:13.893Z,101041.09
2022-09-03T19:22:03.695Z,101037.22
2022-09-03T19:24:46.649Z,101035.00
2022-09-03T19:27:55.291Z,101037.59
2022-09-03T19:30:53.049Z,101041.22
2022-09-03T19:33:45.474Z,101034.31
2022-09-03T19:36:35.361Z,101044.84
2022-09-03T19:39:32.034Z,101049.53
2022-09-03T19:42:21.431Z,101048.13
2022-09-03T19:45:18.295Z,101051.22
2022-09-03T19:48:20.775Z,101057.44
2022-09-03T19:51:16.335Z,101049.00
2022-09-03T19:53:59.941Z,101046.75
2022-09-03T19:56:47.097Z,101049.09
2022-09-03T19:59:35.323Z,101053.06
2022-09-03T20:02:18.857Z,101057.50
2022-09-03T20:05:11.994Z,101055.50
2022-09-03T20:07:54.786Z,101059.25
2022-09-03T20:10:23.579Z,101061.56
2022-09-03T20:13:01.970Z,101060.72
2022-09-03T20:15:40.750Z,101064.31
2022-09-03T20:18:18.175Z,101059.63
2022-09-03T20:20:58.926Z,101066.59
2022-09-03T20:23:36.274Z,101072.91
2022-09-03T20:26:26.654Z,101075.00
2022-09-03T20:29:12.122Z,101075.91
2022-09-03T20:31:51.165Z,101074.13
2022-09-03T20:34:42.771Z,101073.16
2022-09-03T20:37:27.940Z,101080.88
2022-09-03T20:40:10.140Z,101076.22
2022-09-03T20:42:55.865Z,101077.97
2022-09-03T20:45:33.934Z,101078.91
2022-09-03T20:48:17.092Z,101075.16
2022-09-03T20:50:57.312Z,101076.47
2022-09-03T20:53:52.860Z,101081.97
2022-09-03T20:56:29.753Z,101083.31
2022-09-03T20:59:11.863Z,101089.16
2022-09-03T21:01:54.349Z,101087.50
2022-09-03T21:04:39.953Z,101086.31
2022-09-03T21:07:21.921Z,101085.03
2022-09-03T21:10:04.608Z,101079.00
2022-09-03T21:12:47.314Z,101088.53
2022-09-03T21:15:24.390Z,101090.78
2022-09-03T21:18:06.313Z,101089.50
2022-09-03T21:20:45.601Z,101095.56
2022-09-03T21:23:24.905Z,101089.00
2022-09-03T21:26:05.567Z,101093.03
2022-09-03T21:28:41.254Z,101096.63
2022-09-03T21:31:19.232Z,101093.81
2022-09-03T21:33:51.676Z,101085.53
2022-09-03T21:36:30.220Z,101092.03
2022-09-03T21:39:08.466Z,101094.47
2022-09-03T21:41:47.573Z,101103.69
2022-09-03T21:44:24.495Z,101101.50
2022-09-03T21:46:57.693Z,101108.94
2022-09-03T21:49:35.066Z,101102.97
2022-09-03T21:52:10.446Z,101112.16
2022-09-03T21:54:40.924Z,101109.47
2022-09-03T21:57:22.669Z,101114.06
2022-09-03T22:00:09.851Z,101107.25
2022-09-03T22:02:40.467Z,101116.59
2022-09-03T22:05:11.577Z,101116.63
2022-09-03T22:07:56.794Z,101122.19
2022-09-03T22:10:32.723Z,101124.44
2022-09-03T22:13:19.259Z,101123.09
2022-09-03T22:15:51.975Z,101115.91
2022-09-03T22:18:28.695Z,101129.75
2022-09-03T22:21:13.150Z,101122.13
2022-09-03T22:23:57.889Z,101128.53
2022-09-03T22:26:37.573Z,101127.47
2022-09-03T22:29:20.365Z,101126.91
2022-09-03T22:32:02.043Z,101131.31
2022-09-03T22:34:48.269Z,101133.16
2022-09-03T22:37:27.585Z,101132.97
2022-09-03T22:40:05.519Z,101137.97
2022-09-03T22:42:53.458Z,101138.78
2022-09-03T22:45:44.157Z,101141.50
2022-09-03T22:48:26.169Z,101142.94
2022-09-03T22:51:00.329Z,101142.53
2022-09-03T22:53:47.626Z,101150.34
2022-09-03T22:56:22.187Z,101143.53
2022-09-03T22:58:58.902Z,101147.25
2022-09-03T23:01:37.840Z,101148.75
2022-09-03T23:04:17.251Z,101144.84
2022-09-03T23:06:54.797Z,101148.97
2022-09-03T23:09:28.962Z,101150.63
2022-09-03T23:12:03.622Z,101157.84
2022-09-03T23:14:50.526Z,101156.38
2022-09-03T23:22:41.036Z,101156.56
2022-09-03T23:25:19.022Z,101159.69
2022-09-03T23:27:59.539Z,101161.31
2022-09-03T23:30:31.800Z,101159.50
2022-09-03T23:33:05.974Z,101163.41
2022-09-03T23:35:44.547Z,101162.34
2022-09-03T23:38:24.801Z,101162.13
2022-09-03T23:41:00.723Z,101162.34
2022-09-03T23:44:04.412Z,101164.97
2022-09-03T23:46:41.728Z,101164.75
2022-09-03T23:49:31.084Z,101161.25
2022-09-03T23:52:22.628Z,101175.25
2022-09-03T23:55:04.169Z,101160.03
2022-09-03T23:57:41.622Z,101156.31
